createdAt,value
2023-04-02T00:02:21.080Z,32.10
2023-04-02T00:05:30.342Z,36.53
2023-04-02T00:08:26.469Z,37.22
2023-04-02T00:10:55.138Z,36.95
2023-04-02T00:13:28.832Z,34.72
2023-04-02T00:15:58.293Z,37.17
2023-04-02T00:18:26.748Z,33.17
2023-04-02T00:21:03.450Z,36.70
2023-04-02T00:23:31.060Z,34.20
2023-04-02T00:25:57.964Z,34.60
2023-04-02T00:28:24.984Z,34.60
2023-04-02T00:30:56.201Z,35.13
2023-04-02T00:33:26.931Z,38.67
2023-04-02T00:35:55.370Z,38.75
2023-04-02T00:38:29.745Z,40.63
2023-04-02T00:41:00.633Z,40.78
2023-04-02T00:43:31.131Z,33.35
2023-04-02T00:46:01.360Z,36.92
2023-04-02T00:48:31.482Z,36.20
2023-04-02T00:51:08.252Z,37.38
2023-04-02T00:53:37.271Z,33.38
2023-04-02T00:56:14.607Z,35.30
2023-04-02T00:58:43.476Z,36.60
2023-04-02T01:01:27.592Z,36.63
2023-04-02T01:03:58.429Z,32.22
2023-04-02T01:06:31.214Z,35.60
2023-04-02T01:09:11.805Z,30.58
2023-04-02T01:11:42.113Z,32.67
2023-04-02T01:14:21.229Z,36.78
2023-04-02T01:17:15.632Z,31.15
2023-04-02T01:20:07.918Z,34.35
2023-04-02T01:22:57.978Z,35.28
2023-04-02T01:25:35.793Z,32.75
2023-04-02T01:28:21.241Z,36.45
2023-04-02T01:30:52.860Z,33.10
2023-04-02T01:33:25.094Z,30.67
2023-04-02T01:36:03.095Z,34.83
2023-04-02T01:38:38.265Z,29.88
2023-04-02T01:41:27.091Z,39.53
2023-04-02T01:44:08.263Z,27.38
2023-04-02T01:46:41.148Z,35.97
2023-04-02T01:49:18.725Z,31.98
2023-04-02T01:51:51.926Z,34.75
2023-04-02T01:54:22.024Z,36.58
2023-04-02T01:56:50.519Z,30.58
2023-04-02T01:59:22.544Z,33.17
2023-04-02T02:01:58.331Z,33.50
2023-04-02T02:04:25.896Z,32.97
2023-04-02T02:06:52.875Z,29.00
2023-04-02T02:09:27.344Z,32.05
2023-04-02T02:11:54.741Z,26.67
2023-04-02T02:14:24.949Z,31.08
2023-04-02T02:17:15.760Z,28.05
2023-04-02T02:19:53.425Z,36.53
2023-04-02T02:22:38.981Z,28.38
2023-04-02T02:25:14.213Z,31.15
2023-04-02T02:27:53.520Z,27.30
2023-04-02T02:30:35.051Z,27.45
2023-04-02T02:33:04.924Z,26.63
2023-04-02T02:35:57.956Z,25.88
2023-04-02T02:38:49.255Z,35.05
2023-04-02T02:41:41.504Z,26.90
2023-04-02T02:44:09.363Z,26.23
2023-04-02T02:46:41.862Z,24.90
2023-04-02T02:49:16.783Z,29.42
2023-04-02T02:51:50.872Z,22.88
2023-04-02T02:54:26.465Z,22.52
2023-04-02T02:56:59.371Z,26.60
2023-04-02T02:59:29.759Z,24.70
2023-04-02T03:01:57.246Z,24.30
2023-04-02T03:04:25.239Z,25.30
2023-04-02T03:06:57.902Z,25.35
2023-04-02T03:09:42.113Z,26.05
2023-04-02T03:12:26.264Z,27.95
2023-04-02T03:15:13.793Z,26.42
2023-04-02T03:17:59.305Z,23.02
2023-04-02T03:20:38.656Z,25.27
2023-04-02T03:23:08.857Z,27.63
2023-04-02T03:25:52.748Z,26.38
2023-04-02T03:28:27.104Z,25.00
2023-04-02T03:31:09.021Z,27.15
2023-04-02T03:33:40.938Z,25.98
2023-04-02T03:36:32.200Z,22.17
2023-04-02T03:39:44.339Z,24.90
2023-04-02T03:42:17.308Z,24.15
2023-04-02T03:44:54.980Z,22.27
2023-04-02T03:50:08.877Z,24.50
2023-04-02T03:52:38.381Z,23.52
2023-04-02T03:55:20.237Z,32.08
2023-04-02T03:58:09.011Z,28.58
2023-04-02T04:00:57.849Z,25.77
2023-04-02T04:06:06.699Z,21.77
2023-04-02T04:09:06.338Z,20.38
2023-04-02T04:11:38.635Z,21.15
2023-04-02T04:14:31.466Z,20.77
2023-04-02T04:17:06.082Z,22.08
2023-04-02T04:19:48.459Z,20.77
2023-04-02T04:22:30.460Z,22.13
2023-04-02T04:25:21.186Z,20.40
2023-04-02T04:27:56.201Z,17.17
2023-04-02T04:30:42.511Z,19.65
2023-04-02T04:33:23.331Z,19.88
2023-04-02T04:36:00.859Z,20.13
2023-04-02T04:38:41.308Z,20.70
2023-04-02T04:41:24.511Z,19.27
2023-04-02T04:44:06.015Z,17.42
2023-04-02T04:46:45.787Z,18.27
2023-04-02T04:49:39.788Z,16.20
2023-04-02T04:52:35.848Z,21.95
2023-04-02T04:55:30.992Z,19.02
2023-04-02T04:58:24.044Z,17.55
2023-04-02T05:01:10.608Z,18.50
2023-04-02T05:03:52.235Z,21.10
2023-04-02T05:06:25.947Z,18.98
2023-04-02T05:08:57.496Z,21.15
2023-04-02T05:11:38.461Z,17.88
2023-04-02T05:14:52.143Z,16.60
2023-04-02T05:17:46.568Z,21.13
2023-04-02T05:20:28.622Z,16.58
2023-04-02T05:23:20.132Z,19.27
2023-04-02T05:26:19.183Z,18.23
2023-04-02T05:29:10.798Z,18.40
2023-04-02T05:31:49.860Z,21.77
2023-04-02T05:34:25.893Z,19.45
2023-04-02T05:36:54.290Z,20.52
2023-04-02T05:39:26.561Z,19.00
2023-04-02T05:45:33.884Z,19.13
2023-04-02T05:48:13.352Z,20.00
2023-04-02T05:50:47.904Z,17.58
2023-04-02T05:53:37.426Z,18.75
2023-04-02T05:56:37.787Z,21.08
2023-04-02T05:59:28.208Z,20.65
2023-04-02T06:02:17.509Z,18.38
2023-04-02T06:05:04.697Z,21.80
2023-04-02T06:07:58.300Z,20.40
2023-04-02T06:10:31.552Z,17.95
2023-04-02T06:13:05.366Z,18.30
2023-04-02T06:15:38.488Z,21.60
2023-04-02T06:18:26.631Z,19.80
2023-04-02T06:20:55.189Z,19.83
2023-04-02T06:23:35.018Z,17.58
2023-04-02T06:26:14.199Z,17.85
2023-04-02T06:28:47.170Z,24.20
2023-04-02T06:31:32.445Z,19.27
2023-04-02T06:33:59.561Z,16.88
2023-04-02T06:36:31.219Z,21.30
2023-04-02T06:39:11.464Z,21.85
2023-04-02T06:41:38.829Z,21.67
2023-04-02T06:47:30.061Z,17.23
2023-04-02T06:50:24.154Z,14.73
2023-04-02T06:52:55.317Z,18.35
2023-04-02T06:55:36.802Z,15.02
2023-04-02T06:58:04.082Z,16.38
2023-04-02T07:00:38.625Z,17.13
2023-04-02T07:03:21.952Z,18.98
2023-04-02T07:05:51.766Z,18.95
2023-04-02T07:08:18.941Z,16.48
2023-04-02T07:10:46.787Z,16.95
2023-04-02T07:13:19.958Z,18.85
2023-04-02T07:15:52.684Z,15.25
2023-04-02T07:18:25.791Z,18.52
2023-04-02T07:20:53.537Z,14.93
2023-04-02T07:23:23.637Z,18.05
2023-04-02T07:25:53.007Z,13.85
2023-04-02T07:28:21.990Z,15.85
2023-04-02T07:30:52.702Z,14.82
2023-04-02T07:33:23.902Z,14.05
2023-04-02T07:35:52.343Z,15.95
2023-04-02T07:38:19.553Z,13.38
2023-04-02T07:40:47.253Z,15.88
2023-04-02T07:43:14.288Z,14.20
2023-04-02T07:45:41.855Z,14.95
2023-04-02T07:48:14.026Z,16.70
2023-04-02T07:50:44.056Z,14.25
2023-04-02T07:53:33.193Z,13.38
2023-04-02T07:56:02.072Z,17.40
2023-04-02T07:58:30.352Z,16.50
2023-04-02T08:00:59.482Z,14.75
2023-04-02T08:03:27.086Z,19.38
2023-04-02T08:06:01.487Z,17.95
2023-04-02T08:08:31.721Z,19.25
2023-04-02T08:11:01.524Z,17.10
2023-04-02T08:13:28.938Z,17.60
2023-04-02T08:15:59.278Z,16.88
2023-04-02T08:18:27.164Z,22.50
2023-04-02T08:20:54.240Z,18.67
2023-04-02T08:23:21.869Z,20.20
2023-04-02T08:25:49.223Z,20.27
2023-04-02T08:28:16.766Z,18.77
2023-04-02T08:30:44.489Z,17.98
2023-04-02T08:33:11.752Z,15.32
2023-04-02T08:35:41.164Z,18.25
2023-04-02T08:38:09.057Z,19.25
2023-04-02T08:40:39.239Z,15.98
2023-04-02T08:43:19.021Z,18.90
2023-04-02T08:46:02.062Z,18.80
2023-04-02T08:48:32.854Z,18.83
2023-04-02T08:51:00.514Z,17.27
2023-04-02T08:53:40.546Z,24.35
2023-04-02T08:56:27.334Z,18.75
2023-04-02T08:59:02.111Z,22.63
2023-04-02T09:02:04.803Z,16.48
2023-04-02T09:04:33.481Z,19.35
2023-04-02T09:07:01.125Z,18.48
2023-04-02T09:09:28.298Z,19.48
2023-04-02T09:12:04.226Z,23.65
2023-04-02T09:14:43.851Z,19.88
2023-04-02T09:17:18.965Z,19.27
2023-04-02T09:19:56.317Z,23.63
2023-04-02T09:22:32.381Z,18.05
2023-04-02T09:25:02.329Z,25.20
2023-04-02T09:27:32.798Z,18.50
2023-04-02T09:30:18.520Z,17.50
2023-04-02T09:32:48.578Z,19.98
2023-04-02T09:35:26.841Z,21.58
2023-04-02T09:38:16.350Z,19.15
2023-04-02T09:40:51.387Z,21.00
2023-04-02T09:43:25.743Z,17.13
2023-04-02T09:46:17.919Z,20.85
2023-04-02T09:48:53.593Z,19.58
2023-04-02T09:51:27.235Z,20.97
2023-04-02T09:54:03.997Z,17.65
2023-04-02T09:56:33.883Z,20.98
2023-04-02T09:59:18.470Z,17.33
2023-04-02T10:01:57.089Z,17.35
2023-04-02T10:04:49.691Z,22.08
2023-04-02T10:07:29.759Z,20.98
2023-04-02T10:10:18.921Z,23.17
2023-04-02T10:12:57.160Z,21.60
2023-04-02T10:15:49.117Z,21.38
2023-04-02T10:18:40.616Z,16.88
2023-04-02T10:21:12.021Z,20.42
2023-04-02T10:23:39.235Z,20.92
2023-04-02T10:26:44.997Z,16.40
2023-04-02T10:29:25.454Z,19.88
2023-04-02T10:32:15.275Z,17.63
2023-04-02T10:34:58.885Z,19.55
2023-04-02T10:37:49.029Z,17.08
2023-04-02T10:40:22.232Z,16.40
2023-04-02T10:42:54.830Z,14.55
2023-04-02T10:45:54.559Z,13.75
2023-04-02T10:48:27.707Z,15.85
2023-04-02T10:51:06.909Z,19.95
2023-04-02T10:53:49.896Z,13.15
2023-04-02T10:56:22.921Z,15.68
2023-04-02T10:58:58.710Z,17.58
2023-04-02T11:01:29.827Z,18.48
2023-04-02T11:04:05.842Z,16.77
2023-04-02T11:06:44.098Z,16.63
2023-04-02T11:09:19.933Z,16.23
2023-04-02T11:11:51.457Z,14.25
2023-04-02T11:14:26.974Z,19.70
2023-04-02T11:16:58.960Z,14.05
2023-04-02T11:19:40.741Z,13.88
2023-04-02T11:22:18.421Z,14.75
2023-04-02T11:24:46.346Z,12.00
2023-04-02T11:27:16.521Z,20.88
2023-04-02T11:29:50.676Z,21.58
2023-04-02T11:32:22.044Z,14.18
2023-04-02T11:34:56.440Z,16.98
2023-04-02T11:37:46.294Z,17.20
2023-04-02T11:40:16.215Z,20.35
2023-04-02T11:42:56.200Z,15.70
2023-04-02T11:45:23.440Z,17.52
2023-04-02T11:48:00.045Z,18.95
2023-04-02T11:50:48.523Z,16.85
2023-04-02T11:53:26.284Z,13.93
2023-04-02T11:56:31.403Z,18.48
2023-04-02T11:59:04.537Z,19.27
2023-04-02T12:01:53.223Z,17.67
2023-04-02T12:05:04.531Z,14.90
2023-04-02T12:08:08.835Z,14.85
2023-04-02T12:11:15.818Z,21.33
2023-04-02T12:13:43.092Z,15.77
2023-04-02T12:16:13.418Z,19.40
2023-04-02T12:18:56.717Z,17.40
2023-04-02T12:21:28.408Z,17.67
2023-04-02T12:23:58.836Z,17.67
2023-04-02T12:26:38.447Z,16.27
2023-04-02T12:29:35.688Z,15.32
2023-04-02T12:32:19.743Z,20.45
2023-04-02T12:34:46.906Z,15.02
2023-04-02T12:37:22.024Z,18.65
2023-04-02T12:40:16.343Z,17.08
2023-04-02T12:42:46.304Z,19.95
2023-04-02T12:45:34.172Z,21.88
2023-04-02T12:48:05.624Z,20.02
2023-04-02T12:50:34.334Z,17.33
2023-04-02T12:53:01.820Z,24.63
2023-04-02T12:55:28.976Z,25.23
2023-04-02T12:58:00.217Z,18.90
2023-04-02T13:00:29.936Z,24.63
2023-04-02T13:03:03.653Z,21.58
2023-04-02T13:05:43.748Z,23.42
2023-04-02T13:08:18.186Z,21.75
2023-04-02T13:10:45.872Z,19.67
2023-04-02T13:13:21.755Z,16.60
2023-04-02T13:16:06.096Z,22.67
2023-04-02T13:18:36.912Z,18.98
2023-04-02T13:21:24.888Z,21.45
2023-04-02T13:23:53.177Z,21.55
2023-04-02T13:26:24.284Z,21.48
2023-04-02T13:29:19.821Z,24.17
2023-04-02T13:31:47.482Z,18.88
2023-04-02T13:34:14.996Z,19.52
2023-04-02T13:36:44.418Z,20.92
2023-04-02T13:39:11.510Z,18.10
2023-04-02T13:41:46.756Z,22.23
2023-04-02T13:44:27.555Z,24.15
2023-04-02T13:46:56.501Z,20.75
2023-04-02T13:49:24.925Z,20.83
2023-04-02T13:51:54.926Z,25.17
2023-04-02T13:54:28.151Z,22.05
2023-04-02T13:57:01.733Z,21.85
2023-04-02T13:59:35.227Z,22.60
2023-04-02T14:02:10.630Z,20.05
2023-04-02T14:04:47.050Z,19.57
2023-04-02T14:07:22.049Z,18.67
2023-04-02T14:10:05.894Z,20.92
2023-04-02T14:12:58.462Z,17.48
2023-04-02T14:15:57.833Z,19.73
2023-04-02T14:19:02.936Z,23.33
2023-04-02T14:21:44.405Z,16.13
2023-04-02T14:24:11.508Z,22.00
2023-04-02T14:26:57.870Z,19.45
2023-04-02T14:29:30.680Z,20.05
2023-04-02T14:32:18.042Z,20.08
2023-04-02T14:35:18.282Z,16.98
2023-04-02T14:38:28.597Z,22.52
2023-04-02T14:41:11.784Z,26.65
2023-04-02T14:43:58.923Z,19.73
2023-04-02T14:49:02.084Z,22.52
2023-04-02T14:51:41.745Z,23.52
2023-04-02T14:54:33.740Z,25.83
2023-04-02T14:57:17.003Z,19.00
2023-04-02T14:59:56.041Z,21.15
2023-04-02T15:02:41.737Z,24.08
2023-04-02T15:05:36.138Z,24.02
2023-04-02T15:08:22.441Z,17.40
2023-04-02T15:13:25.716Z,23.40
2023-04-02T15:16:19.978Z,20.48
2023-04-02T15:18:52.373Z,19.70
2023-04-02T15:21:19.449Z,19.45
2023-04-02T15:24:16.698Z,16.38
2023-04-02T15:26:49.736Z,18.52
2023-04-02T15:29:35.856Z,16.90
2023-04-02T15:32:21.591Z,27.13
2023-04-02T15:35:15.488Z,18.48
2023-04-02T15:38:13.385Z,17.17
2023-04-02T15:40:43.483Z,23.52
2023-04-02T15:43:24.535Z,20.13
2023-04-02T15:46:16.586Z,19.73
2023-04-02T15:49:21.151Z,13.70
2023-04-02T15:51:57.212Z,21.60
2023-04-02T15:54:33.396Z,19.33
2023-04-02T15:57:30.225Z,14.73
2023-04-02T16:00:23.948Z,24.98
2023-04-02T16:03:09.626Z,14.40
2023-04-02T16:05:39.966Z,20.42
2023-04-02T16:08:48.098Z,14.52
2023-04-02T16:13:43.907Z,19.90
2023-04-02T16:16:22.112Z,19.80
2023-04-02T16:19:24.144Z,21.33
2023-04-02T16:22:01.741Z,19.67
2023-04-02T16:24:29.282Z,26.65
2023-04-02T16:27:11.823Z,20.70
2023-04-02T16:30:01.162Z,20.15
2023-04-02T16:32:57.134Z,24.20
2023-04-02T16:35:42.407Z,23.63
2023-04-02T16:38:38.534Z,23.70
2023-04-02T16:41:27.690Z,15.43
2023-04-02T16:44:07.205Z,18.55
2023-04-02T16:47:06.806Z,17.98
2023-04-02T16:50:12.396Z,12.57
2023-04-02T16:53:11.814Z,16.83
2023-04-02T16:55:49.422Z,18.48
2023-04-02T16:58:27.860Z,19.95
2023-04-02T17:01:01.070Z,16.40
2023-04-02T17:03:37.243Z,18.55
2023-04-02T17:06:13.491Z,16.55
2023-04-02T17:08:52.106Z,12.40
2023-04-02T17:11:22.033Z,16.83
2023-04-02T17:14:06.238Z,21.38
2023-04-02T17:16:50.729Z,16.58
2023-04-02T17:19:19.470Z,13.57
2023-04-02T17:21:52.623Z,10.82
2023-04-02T17:24:19.656Z,11.15
2023-04-02T17:26:50.352Z,10.48
2023-04-02T17:29:35.346Z,14.70
2023-04-02T17:32:05.370Z,12.23
2023-04-02T17:34:32.432Z,13.63
2023-04-02T17:37:11.790Z,15.15
2023-04-02T17:39:39.745Z,15.65
2023-04-02T17:42:36.710Z,18.05
2023-04-02T17:45:03.593Z,12.00
2023-04-02T17:47:34.026Z,15.00
2023-04-02T17:50:26.184Z,10.48
2023-04-02T17:52:56.759Z,14.27
2023-04-02T17:55:34.502Z,15.45
2023-04-02T17:58:11.401Z,15.20
2023-04-02T18:01:13.505Z,16.88
2023-04-02T18:03:49.531Z,16.48
2023-04-02T18:06:41.029Z,14.70
2023-04-02T18:09:19.287Z,9.25
2023-04-02T18:11:54.920Z,13.02
2023-04-02T18:14:37.890Z,12.47
2023-04-02T18:17:36.941Z,20.52
2023-04-02T18:20:31.349Z,13.95
2023-04-02T18:23:22.338Z,12.23
2023-04-02T18:26:08.335Z,12.65
2023-04-02T18:28:52.974Z,16.98
2023-04-02T18:31:43.481Z,17.05
2023-04-02T18:34:19.844Z,14.50
2023-04-02T18:36:52.913Z,16.45
2023-04-02T18:39:26.993Z,16.40
2023-04-02T18:42:05.696Z,13.30
2023-04-02T18:44:49.420Z,13.07
2023-04-02T18:47:36.823Z,13.85
2023-04-02T18:50:16.538Z,10.75
2023-04-02T18:52:43.523Z,15.90
2023-04-02T18:55:18.355Z,11.02
2023-04-02T18:57:48.872Z,12.10
2023-04-02T19:00:28.375Z,12.90
2023-04-02T19:03:02.095Z,17.70
2023-04-02T19:05:35.664Z,15.77
2023-04-02T19:08:11.242Z,16.40
2023-04-02T19:10:41.951Z,21.27
2023-04-02T19:13:22.910Z,16.35
2023-04-02T19:16:19.020Z,17.30
2023-04-02T19:19:03.221Z,13.60
2023-04-02T19:21:39.431Z,11.02
2023-04-02T19:24:15.606Z,25.40
2023-04-02T19:27:20.978Z,14.82
2023-04-02T19:29:57.278Z,17.98
2023-04-02T19:32:39.217Z,10.85
2023-04-02T19:35:18.292Z,11.40
2023-04-02T19:38:05.477Z,13.27
2023-04-02T19:40:53.717Z,14.95
2023-04-02T19:43:20.990Z,10.82
2023-04-02T19:45:49.223Z,24.10
2023-04-02T19:48:20.245Z,15.40
2023-04-02T19:50:49.200Z,15.93
2023-04-02T19:53:17.059Z,16.98
2023-04-02T19:55:45.601Z,14.40
2023-04-02T19:58:39.231Z,12.25
2023-04-02T20:01:06.694Z,18.40
2023-04-02T20:03:33.809Z,17.05
2023-04-02T20:06:01.178Z,14.93
2023-04-02T20:08:28.244Z,14.55
2023-04-02T20:10:56.180Z,17.27
2023-04-02T20:13:23.052Z,20.02
2023-04-02T20:15:51.602Z,11.32
2023-04-02T20:18:36.690Z,11.40
2023-04-02T20:21:13.658Z,14.15
2023-04-02T20:23:41.151Z,17.40
2023-04-02T20:26:08.764Z,13.20
2023-04-02T20:28:36.237Z,12.73
2023-04-02T20:31:09.339Z,18.90
2023-04-02T20:33:36.880Z,12.93
2023-04-02T20:36:07.223Z,10.85
2023-04-02T20:38:35.875Z,12.50
2023-04-02T20:41:15.404Z,15.52
2023-04-02T20:43:46.032Z,11.68
2023-04-02T20:46:14.459Z,16.25
2023-04-02T20:48:46.175Z,16.92
2023-04-02T20:51:15.353Z,13.88
2023-04-02T20:53:46.219Z,16.10
2023-04-02T20:56:15.833Z,11.73
2023-04-02T20:58:44.505Z,13.05
2023-04-02T21:01:21.308Z,14.45
2023-04-02T21:03:50.436Z,18.38
2023-04-02T21:06:21.362Z,11.40
2023-04-02T21:59:47.252Z,8.55
2023-04-02T22:02:14.795Z,11.15
2023-04-02T22:04:42.049Z,14.18
2023-04-02T22:07:09.111Z,10.23
2023-04-02T22:09:36.129Z,13.27
2023-04-02T22:12:03.208Z,13.90
2023-04-02T22:14:31.406Z,16.42
2023-04-02T22:17:23.600Z,15.67
2023-04-02T22:19:50.801Z,15.60
2023-04-02T22:22:17.652Z,20.25
2023-04-02T22:24:44.528Z,16.58
2023-04-02T22:27:12.930Z,13.50
2023-04-02T22:29:39.854Z,14.50
2023-04-02T22:32:06.758Z,17.13
2023-04-02T22:34:33.865Z,15.32
2023-04-02T22:37:00.999Z,12.70
2023-04-02T22:39:27.935Z,15.55
2023-04-02T22:41:55.024Z,15.07
2023-04-02T22:44:21.991Z,12.98
2023-04-02T22:46:48.887Z,15.98
2023-04-02T22:49:19.346Z,13.25
2023-04-02T22:51:46.994Z,14.80
2023-04-02T22:54:13.911Z,14.15
2023-04-02T22:56:41.354Z,19.42
2023-04-02T22:59:08.282Z,18.60
2023-04-02T23:01:36.185Z,20.05
2023-04-02T23:04:05.177Z,18.80
2023-04-02T23:06:32.310Z,17.20
2023-04-02T23:08:59.205Z,18.67
2023-04-02T23:11:27.849Z,16.90
2023-04-02T23:13:57.362Z,17.83
2023-04-02T23:16:27.306Z,20.88
2023-04-02T23:18:55.580Z,20.33
2023-04-02T23:21:23.516Z,17.52
2023-04-02T23:23:51.244Z,21.02
2023-04-02T23:26:29.681Z,18.20
2023-04-02T23:28:58.528Z,21.02
2023-04-02T23:31:26.503Z,17.05
2023-04-02T23:33:53.421Z,27.65
2023-04-02T23:36:29.256Z,15.25
2023-04-02T23:39:01.745Z,14.50
2023-04-02T23:41:30.531Z,17.38
2023-04-02T23:43:58.557Z,14.43
2023-04-02T23:46:26.007Z,16.52
2023-04-02T23:48:53.979Z,16.45
2023-04-02T23:51:21.297Z,15.02
2023-04-02T23:53:50.233Z,16.23
2023-04-02T23:56:18.001Z,13.05
2023-04-02T23:58:45.360Z,18.02
